This is the latest recevied weather packets stored in our database for station/object KI5UTS-13. If no packets are shown the sender has not sent any weather packets the latest 10 day(s).
| Time | Temp. | Humidity | Pressure | Rain* | Wind** | Luminosity | Snow |
|---|---|---|---|---|---|---|---|
| 1788448519 | 31.67° C | 73% | 1017.7 hPa | 0 mm | - | 800 W/m² | - |
| 1788448214 | 32.22° C | 72% | 1017.3 hPa | 0 mm | - | 216 W/m² | - |
| 1788447909 | 31.67° C | 74% | 1017.6 hPa | 0 mm | - | 727 W/m² | - |
| 1788447605 | 31.67° C | 73% | 1017.6 hPa | 0 mm | - | 491 W/m² | - |
| 1788447299 | 32.22° C | 72% | 1017.5 hPa | 0 mm | - | 644 W/m² | - |
| 1788446994 | 31.67° C | 76% | 1017.6 hPa | 0 mm | - | 593 W/m² | - |
| 1788446693 | 31.67° C | 75% | 1017.5 hPa | 0 mm | - | 582 W/m² | - |
| 1788446389 | 31.67° C | 77% | 1017.5 hPa | 0 mm | - | 570 W/m² | - |
| 1788446086 | 31.11° C | 79% | 1017.6 hPa | 0 mm | - | 514 W/m² | - |
| 1788445781 | 30.56° C | 81% | 1017.3 hPa | 0 mm | - | 496 W/m² | - |
| 1788445476 | 31.11° C | 80% | 1017.5 hPa | 0 mm | - | 457 W/m² | - |
| 1788445172 | 30.56° C | 82% | 1017.5 hPa | 0 mm | - | 398 W/m² | - |
| 1788444868 | 30.56° C | 81% | 1017.5 hPa | 0 mm | - | 356 W/m² | - |
| 1788444564 | 30.56° C | 82% | 1017.5 hPa | 0 mm | - | 354 W/m² | - |
| 1788444259 | 30.56° C | 81% | 1017.6 hPa | 0 mm | - | 347 W/m² | - |
| 1788443954 | 30.56° C | 82% | 1017.5 hPa | 0 mm | - | 329 W/m² | - |
| 1788443650 | 30° C | 83% | 1017.6 hPa | 0 mm | - | 305 W/m² | - |
| 1788443348 | 29.44° C | 84% | 1017.5 hPa | 0 mm | - | 293 W/m² | - |
| 1788443037 | 29.44° C | 84% | 1017.4 hPa | 0 mm | - | 273 W/m² | - |
| 1788442735 | 29.44° C | 84% | 1017.7 hPa | 0 mm | - | 258 W/m² | - |
| 1788442432 | 28.89° C | 85% | 1017.6 hPa | 0 mm | - | 245 W/m² | - |
| 1788442126 | 28.89° C | 86% | 1017.7 hPa | 0 mm | - | 220 W/m² | - |
| 1788441822 | 28.33° C | 86% | 1017.7 hPa | 0 mm | - | 199 W/m² | - |
| 1788441522 | 28.33° C | 88% | 1017.6 hPa | 0 mm | - | 187 W/m² | - |
| 1788441221 | 27.78° C | 88% | 1017.6 hPa | 0 mm | - | 164 W/m² | - |
* Rain latest hour (hover to see other rain measurements)
** Current wind speed in m/s (hover to see current wind gust speed)